Time;durP1;ratioP1;P1;durP2;ratioP2;P2;SDS_P1;SDS_P2;PMS_P1;PMS_P2;Temp;Humidity;BMP_temperature;BMP_pressure;BME280_temperature;BME280_humidity;BME280_pressure;Samples;Min_cycle;Max_cycle;Signal;HPM_P1;HPM_P2
2024/04/01 00:00:59;;;;;;;38.50;20.40;;;;;;;11.50;79.57;99308.16;4944815;28;20062;-56
2024/04/01 00:03:24;;;;;;;32.50;20.23;;;;;;;11.38;80.29;99320.22;4942829;28;20053;-55
2024/04/01 00:05:58;;;;;;;29.13;19.13;;;;;;;11.25;81.24;99330.63;4945138;28;20051;-54
2024/04/01 00:08:24;;;;;;;28.27;18.60;;;;;;;11.14;81.91;99324.69;4941492;28;20054;-55
2024/04/01 00:10:51;;;;;;;37.33;17.77;;;;;;;11.09;81.39;99315.56;4943397;28;20047;-54
2024/04/01 00:13:19;;;;;;;27.30;18.25;;;;;;;11.28;81.61;99306.28;4940880;28;20057;-55
2024/04/01 00:15:45;;;;;;;27.38;17.63;;;;;;;11.39;80.92;99300.53;4938720;28;20057;-54
2024/04/01 00:18:11;;;;;;;26.73;16.35;;;;;;;11.36;80.59;99301.75;4938264;28;20051;-53
2024/04/01 00:20:37;;;;;;;29.73;17.77;;;;;;;11.24;80.55;99310.31;4942224;28;20055;-54
2024/04/01 00:23:04;;;;;;;27.80;15.52;;;;;;;10.84;83.42;99309.50;4944001;28;20441;-56
2024/04/01 00:25:31;;;;;;;25.33;14.95;;;;;;;11.34;80.78;99298.41;4940848;28;20051;-57
2024/04/01 00:27:57;;;;;;;23.73;15.00;;;;;;;11.40;81.14;99307.53;4938910;28;20051;-55
2024/04/01 00:30:23;;;;;;;22.50;14.70;;;;;;;11.55;80.13;99297.75;4936855;28;20507;-55
2024/04/01 00:32:49;;;;;;;23.48;13.30;;;;;;;11.11;81.43;99292.22;4942982;28;20058;-55
2024/04/01 00:35:15;;;;;;;21.90;13.35;;;;;;;11.51;80.45;99288.47;4939910;28;20086;-54
2024/04/01 00:37:41;;;;;;;23.73;13.05;;;;;;;11.19;80.99;99293.00;4939925;28;20051;-54
2024/04/01 00:40:07;;;;;;;21.13;12.85;;;;;;;11.49;80.70;99306.47;4942184;28;20358;-54
2024/04/01 00:42:33;;;;;;;17.95;10.20;;;;;;;11.33;81.51;99301.25;4942739;28;20051;-55
2024/04/01 00:44:59;;;;;;;16.40;10.50;;;;;;;11.66;80.54;99302.69;4944171;28;20414;-54
2024/04/01 00:47:26;;;;;;;21.10;10.27;;;;;;;11.65;80.06;99306.38;4937140;28;20054;-54
2024/04/01 00:49:54;;;;;;;22.15;11.02;;;;;;;11.63;80.83;99303.06;4941476;28;20055;-55
2024/04/01 00:52:28;;;;;;;22.05;10.13;;;;;;;11.57;80.60;99301.91;4940658;28;20043;-53
2024/04/01 00:54:56;;;;;;;19.70;10.43;;;;;;;11.90;79.21;99315.84;4942342;28;20062;-51
2024/04/01 00:57:22;;;;;;;18.00;10.20;;;;;;;11.80;79.46;99296.56;4934081;28;20051;-54
2024/04/01 00:59:51;;;;;;;20.98;10.23;;;;;;;11.89;79.02;99284.00;4943962;28;20051;-55
2024/04/01 01:02:17;;;;;;;12.85;9.07;;;;;;;11.79;79.04;99278.06;4943815;28;20401;-55
2024/04/01 01:04:44;;;;;;;18.67;9.52;;;;;;;11.84;78.68;99278.38;4940022;28;20381;-53
2024/04/01 01:07:11;;;;;;;19.50;9.38;;;;;;;11.73;78.53;99271.63;4943559;28;20047;-56
2024/04/01 01:09:39;;;;;;;16.90;9.10;;;;;;;11.79;78.43;99264.72;4937014;28;20051;-53
2024/04/01 01:12:06;;;;;;;20.67;9.32;;;;;;;11.81;78.19;99268.06;4940613;28;20051;-52
2024/04/01 01:14:31;;;;;;;26.52;9.25;;;;;;;11.54;78.93;99264.09;4938697;28;20062;-54
2024/04/01 01:16:58;;;;;;;19.75;8.98;;;;;;;11.51;79.17;99267.13;4946384;28;20134;-54
2024/04/01 01:19:27;;;;;;;17.33;8.43;;;;;;;11.54;78.80;99264.91;4937821;28;20077;-54
2024/04/01 01:22:08;;;;;;;14.85;9.00;;;;;;;11.45;78.96;99257.13;4938991;28;20422;-51
2024/04/01 01:24:34;;;;;;;16.67;9.23;;;;;;;11.44;78.75;99256.34;4942490;28;20537;-54
2024/04/01 01:27:00;;;;;;;17.65;8.65;;;;;;;11.39;79.17;99249.84;4943253;28;20055;-55
2024/04/01 01:29:29;;;;;;;18.27;9.10;;;;;;;11.32;78.75;99235.56;4934749;28;20056;-55
2024/04/01 01:31:58;;;;;;;19.73;8.90;;;;;;;11.31;78.86;99242.75;4940805;28;20066;-53
2024/04/01 01:34:25;;;;;;;17.02;9.20;;;;;;;11.28;79.14;99234.28;4939579;28;20667;-55
2024/04/01 01:36:52;;;;;;;17.48;9.23;;;;;;;11.09;79.95;99224.94;4943389;28;20059;-56
2024/04/01 01:39:18;;;;;;;14.05;8.60;;;;;;;11.11;79.79;99217.56;4941174;28;20047;-49
2024/04/01 01:41:44;;;;;;;15.57;9.43;;;;;;;11.19;79.47;99215.66;4941721;28;20165;-52
2024/04/01 01:44:10;;;;;;;16.00;9.65;;;;;;;11.09;79.53;99225.75;4942009;28;20054;-51
2024/04/01 01:46:36;;;;;;;18.10;10.05;;;;;;;11.02;79.95;99224.81;4936425;28;20070;-55
2024/04/01 01:49:02;;;;;;;15.43;9.20;;;;;;;10.89;80.84;99219.22;4942420;28;20051;-53
2024/04/01 01:51:27;;;;;;;21.52;11.20;;;;;;;11.03;79.98;99214.97;4932357;28;20051;-55
2024/04/01 01:53:53;;;;;;;19.08;9.88;;;;;;;10.82;80.71;99214.78;4940944;28;20137;-53
2024/04/01 01:56:19;;;;;;;19.95;9.40;;;;;;;10.77;81.33;99215.28;4935418;28;20043;-51
2024/04/01 01:58:45;;;;;;;25.17;11.27;;;;;;;10.87;80.68;99215.91;4939993;28;20048;-54
2024/04/01 02:01:10;;;;;;;19.70;9.82;;;;;;;10.74;80.88;99216.47;4925829;28;20059;-53
2024/04/01 02:03:37;;;;;;;18.00;9.95;;;;;;;10.73;81.14;99221.97;4939700;28;20081;-54
2024/04/01 02:06:04;;;;;;;22.85;10.50;;;;;;;10.73;81.35;99220.16;4942635;28;20047;-49
2024/04/01 02:08:30;;;;;;;18.95;12.10;;;;;;;10.85;81.43;99223.22;4937105;28;20051;-51
2024/04/01 02:10:56;;;;;;;21.63;12.07;;;;;;;10.71;81.38;99227.47;4941506;28;20097;-53
2024/04/01 02:13:22;;;;;;;18.95;10.90;;;;;;;10.74;81.27;99226.31;4935901;28;20066;-52
2024/04/01 02:15:48;;;;;;;20.65;11.50;;;;;;;10.79;81.89;99229.25;4925253;28;20125;-56
2024/04/01 02:18:14;;;;;;;23.10;11.77;;;;;;;10.93;81.30;99228.53;4942700;28;20077;-57
2024/04/01 02:20:40;;;;;;;20.27;11.95;;;;;;;10.93;80.76;99233.00;4939824;28;20063;-55
2024/04/01 02:23:06;;;;;;;21.83;12.57;;;;;;;11.00;80.14;99232.13;4942891;28;20419;-55
2024/04/01 02:25:33;;;;;;;17.67;11.82;;;;;;;10.91;80.04;99230.53;4922750;28;20142;-54
2024/04/01 02:27:59;;;;;;;20.33;11.98;;;;;;;10.74;80.65;99239.63;4941539;28;20062;-49
2024/04/01 02:30:25;;;;;;;24.80;12.52;;;;;;;10.55;82.04;99237.41;4941132;28;20047;-56
2024/04/01 02:32:51;;;;;;;20.75;12.48;;;;;;;10.56;82.07;99236.41;4940426;28;20070;-57
2024/04/01 02:35:17;;;;;;;27.55;13.35;;;;;;;10.51;81.82;99233.38;4940275;28;20051;-55
2024/04/01 02:37:43;;;;;;;24.67;12.70;;;;;;;10.55;81.77;99221.41;4938936;28;20097;-50
2024/04/01 02:40:10;;;;;;;20.98;12.50;;;;;;;10.46;82.48;99228.56;4940965;28;20043;-54
2024/04/01 02:42:36;;;;;;;24.85;12.27;;;;;;;10.58;81.71;99221.03;4935372;28;20053;-56
2024/04/01 02:45:03;;;;;;;20.55;12.88;;;;;;;10.54;81.81;99225.06;4921034;29;20058;-56
2024/04/01 02:47:29;;;;;;;21.27;12.50;;;;;;;10.63;81.22;99226.66;4938731;28;20054;-54
2024/04/01 02:49:55;;;;;;;23.00;12.77;;;;;;;10.72;80.26;99223.81;4938232;28;20465;-50
2024/04/01 02:52:21;;;;;;;21.42;13.00;;;;;;;10.59;80.96;99220.03;4941634;28;20135;-53
2024/04/01 02:54:46;;;;;;;23.83;14.10;;;;;;;10.48;81.23;99231.91;4934582;28;20055;-51
2024/04/01 02:57:12;;;;;;;27.23;13.57;;;;;;;10.42;81.57;99233.41;4937463;28;20075;-53
2024/04/01 02:59:38;;;;;;;25.30;13.50;;;;;;;10.53;80.73;99244.72;4938945;28;20051;-55
2024/04/01 03:02:04;;;;;;;19.88;12.55;;;;;;;10.52;80.33;99233.19;4944854;28;20058;-53
2024/04/01 03:04:30;;;;;;;24.30;13.13;;;;;;;10.53;80.26;99236.72;4943032;28;20134;-53
2024/04/01 03:06:55;;;;;;;22.55;13.20;;;;;;;10.37;81.37;99243.75;4940452;28;20059;-50
2024/04/01 03:09:21;;;;;;;27.42;15.50;;;;;;;10.40;81.25;99250.56;4941272;28;20051;-48
2024/04/01 03:11:47;;;;;;;25.23;14.07;;;;;;;10.34;80.56;99249.44;4945959;28;20051;-56
2024/04/01 03:14:12;;;;;;;25.75;13.70;;;;;;;10.39;80.49;99238.25;4944878;28;20059;-56
2024/04/01 03:16:38;;;;;;;21.92;13.25;;;;;;;10.32;80.49;99246.09;4944954;28;20055;-56
2024/04/01 03:19:04;;;;;;;22.50;14.50;;;;;;;10.26;81.00;99252.09;4932428;28;20066;-55
2024/04/01 03:21:30;;;;;;;22.15;13.75;;;;;;;10.33;81.55;99252.25;4943175;28;20622;-55
2024/04/01 03:23:56;;;;;;;24.13;14.23;;;;;;;10.33;80.67;99252.25;4945521;28;20071;-55
2024/04/01 03:26:22;;;;;;;22.00;14.15;;;;;;;10.33;80.19;99247.75;4941951;28;20113;-55
2024/04/01 03:28:48;;;;;;;22.63;14.75;;;;;;;10.28;80.60;99244.78;4945833;28;20130;-54
2024/04/01 03:31:13;;;;;;;25.25;15.43;;;;;;;10.30;80.84;99255.25;4944950;28;20422;-55
2024/04/01 03:33:39;;;;;;;23.95;14.52;;;;;;;10.40;80.34;99254.06;4942239;28;20055;-53
2024/04/01 03:36:05;;;;;;;24.50;15.40;;;;;;;10.41;80.68;99255.72;4941368;28;20130;-57
2024/04/01 03:38:31;;;;;;;28.13;14.95;;;;;;;10.43;80.72;99251.03;4938590;28;20342;-55
2024/04/01 03:40:56;;;;;;;24.73;15.05;;;;;;;10.39;80.63;99249.72;4942918;28;20054;-56
2024/04/01 03:43:23;;;;;;;24.65;14.93;;;;;;;10.31;80.86;99233.78;4942451;28;20281;-54
2024/04/01 03:45:59;;;;;;;27.25;15.48;;;;;;;10.33;80.79;99234.44;4943433;28;20085;-54
2024/04/01 03:48:25;;;;;;;23.13;15.48;;;;;;;10.37;80.45;99233.09;4934519;28;20050;-56
2024/04/01 03:50:51;;;;;;;26.02;15.73;;;;;;;10.35;80.30;99216.44;4938238;28;20055;-51
2024/04/01 03:53:18;;;;;;;25.25;15.25;;;;;;;10.35;80.60;99220.97;4940889;28;20554;-53
2024/04/01 03:55:43;;;;;;;26.40;16.38;;;;;;;10.37;80.54;99221.59;4942286;28;20740;-56
2024/04/01 03:58:09;;;;;;;28.27;18.02;;;;;;;10.38;80.61;99221.44;4943602;28;20055;-56
2024/04/01 04:00:35;;;;;;;26.20;16.95;;;;;;;10.35;80.34;99208.47;4941592;28;20062;-56
2024/04/01 04:03:01;;;;;;;28.38;17.05;;;;;;;10.35;80.72;99218.31;4926753;28;20287;-53
2024/04/01 04:05:27;;;;;;;24.33;17.20;;;;;;;10.32;81.22;99221.31;4941073;28;20047;-56
2024/04/01 04:07:53;;;;;;;29.05;16.48;;;;;;;10.28;81.67;99217.34;4923704;28;20438;-55
2024/04/01 04:10:19;;;;;;;29.23;17.83;;;;;;;10.36;81.71;99219.94;4940738;28;20051;-52
2024/04/01 04:12:45;;;;;;;31.23;19.13;;;;;;;10.37;80.98;99214.44;4945207;28;20071;-52
2024/04/01 04:15:10;;;;;;;30.90;17.77;;;;;;;10.21;82.20;99217.19;4944717;28;20414;-56
2024/04/01 04:17:36;;;;;;;28.95;18.35;;;;;;;10.19;82.12;99216.53;4936247;28;20044;-55
2024/04/01 04:20:02;;;;;;;27.48;17.15;;;;;;;10.24;81.54;99227.47;4937998;28;20063;-56
2024/04/01 04:22:28;;;;;;;26.25;16.80;;;;;;;10.17;80.85;99229.16;4938913;28;20047;-50
2024/04/01 04:24:54;;;;;;;28.50;16.83;;;;;;;10.07;81.01;99228.53;4940175;28;20525;-55
2024/04/01 04:27:20;;;;;;;23.92;16.52;;;;;;;10.02;81.29;99231.69;4948762;28;20076;-53
2024/04/01 04:29:45;;;;;;;24.48;16.60;;;;;;;10.04;81.38;99231.53;4945552;28;20078;-54
2024/04/01 04:32:13;;;;;;;27.02;16.58;;;;;;;10.03;81.13;99228.03;4954323;28;20520;-54
2024/04/01 04:34:39;;;;;;;27.75;17.67;;;;;;;10.02;81.25;99228.19;4950204;28;20051;-55
2024/04/01 04:37:06;;;;;;;25.58;17.05;;;;;;;10.01;80.63;99226.56;4955372;28;20055;-55
2024/04/01 04:39:33;;;;;;;24.90;16.48;;;;;;;9.97;80.65;99217.25;4947775;28;20051;-54
2024/04/01 04:41:59;;;;;;;25.40;16.55;;;;;;;9.76;81.19;99216.94;4947610;28;20047;-56
2024/04/01 04:44:25;;;;;;;28.00;17.02;;;;;;;9.85;80.77;99215.94;4946258;28;20166;-56
2024/04/01 04:46:50;;;;;;;26.63;16.65;;;;;;;9.81;80.27;99219.94;4952463;28;20133;-55
2024/04/01 04:49:17;;;;;;;29.23;16.63;;;;;;;9.78;80.55;99217.63;4953121;28;20153;-51
2024/04/01 04:51:44;;;;;;;25.25;16.60;;;;;;;9.75;80.36;99223.25;4941114;28;20829;-57
2024/04/01 04:54:10;;;;;;;25.02;16.88;;;;;;;9.63;80.61;99233.44;4941641;28;20069;-56
2024/04/01 04:56:36;;;;;;;27.58;17.40;;;;;;;9.68;80.47;99235.56;4943208;28;20085;-50
2024/04/01 04:59:03;;;;;;;23.30;17.65;;;;;;;9.60;80.32;99237.25;4940736;28;20418;-54
2024/04/01 05:01:31;;;;;;;27.45;18.00;;;;;;;9.57;81.12;99232.28;4937341;28;20053;-56
2024/04/01 05:03:57;;;;;;;27.77;17.88;;;;;;;9.62;80.69;99248.56;4967443;28;20051;-56
2024/04/01 05:06:23;;;;;;;31.98;18.83;;;;;;;9.61;81.62;99252.22;4952041;28;20128;-53
2024/04/01 05:08:49;;;;;;;27.80;18.92;;;;;;;9.56;81.44;99251.88;4938980;28;20055;-55
2024/04/01 05:11:15;;;;;;;30.73;18.45;;;;;;;9.65;81.34;99250.06;4942138;28;20055;-55
2024/04/01 05:13:41;;;;;;;22.95;16.55;;;;;;;9.68;80.98;99254.19;4939658;28;20419;-53
2024/04/01 05:16:07;;;;;;;27.27;18.75;;;;;;;9.44;80.82;99247.06;4925194;28;20073;-55
2024/04/01 05:18:34;;;;;;;26.30;17.70;;;;;;;9.45;81.85;99259.38;4942070;28;20044;-53
2024/04/01 05:21:00;;;;;;;25.50;17.67;;;;;;;9.52;81.52;99269.19;4938416;28;20059;-53
2024/04/01 05:23:26;;;;;;;25.73;18.23;;;;;;;9.55;81.54;99265.34;4946013;28;20407;-55
2024/04/01 05:25:52;;;;;;;27.98;20.05;;;;;;;9.57;81.35;99264.19;4943726;28;20057;-54
2024/04/01 05:28:18;;;;;;;28.38;19.73;;;;;;;9.55;81.30;99274.16;4956834;28;20055;-55
2024/04/01 05:30:46;;;;;;;27.20;18.83;;;;;;;9.60;80.95;99279.00;4942892;28;20048;-50
2024/04/01 05:33:18;;;;;;;26.67;17.83;;;;;;;9.54;80.99;99282.28;4943525;28;20055;-57
2024/04/01 05:35:44;;;;;;;27.17;18.17;;;;;;;9.52;81.42;99282.47;4934908;28;20549;-55
2024/04/01 05:38:10;;;;;;;25.08;17.55;;;;;;;9.53;81.22;99278.00;4941559;28;20453;-55
2024/04/01 05:40:36;;;;;;;25.30;18.17;;;;;;;9.51;81.92;99280.81;4940575;28;20043;-55
2024/04/01 05:43:02;;;;;;;29.05;18.33;;;;;;;9.60;81.36;99279.78;4936158;28;20052;-52
2024/04/01 05:45:28;;;;;;;27.67;19.20;;;;;;;9.63;80.67;99286.63;4935738;28;20055;-56
2024/04/01 05:47:54;;;;;;;24.85;17.83;;;;;;;9.63;81.22;99284.81;4937851;28;20066;-55
2024/04/01 05:50:20;;;;;;;25.45;18.92;;;;;;;9.61;81.16;99284.13;4939956;28;20047;-53
2024/04/01 05:52:46;;;;;;;24.15;18.58;;;;;;;9.63;81.44;99286.63;4941122;28;20101;-55
2024/04/01 05:55:13;;;;;;;26.98;18.83;;;;;;;9.72;81.17;99282.16;4939222;28;20058;-55
2024/04/01 05:57:39;;;;;;;24.27;17.80;;;;;;;9.71;80.91;99289.28;4939666;28;20051;-51
2024/04/01 06:00:06;;;;;;;28.70;18.88;;;;;;;9.81;80.97;99278.47;4942491;28;20047;-56
2024/04/01 06:02:38;;;;;;;24.45;17.85;;;;;;;9.85;80.61;99271.81;4942454;28;20184;-56
2024/04/01 06:05:04;;;;;;;26.90;18.83;;;;;;;9.88;80.73;99279.44;4934231;28;20688;-54
2024/04/01 06:07:30;;;;;;;25.33;18.80;;;;;;;9.97;80.30;99275.78;4940498;28;20053;-55
2024/04/01 06:09:58;;;;;;;24.17;18.30;;;;;;;10.02;80.41;99273.44;4942255;28;20047;-53
2024/04/01 06:12:24;;;;;;;27.50;19.38;;;;;;;10.05;80.73;99274.94;4951928;28;20409;-54
2024/04/01 06:14:50;;;;;;;31.13;19.73;;;;;;;10.07;80.30;99276.44;4925328;28;20056;-54
2024/04/01 06:17:16;;;;;;;33.65;22.27;;;;;;;10.12;80.83;99276.78;4938659;28;20055;-56
2024/04/01 06:19:42;;;;;;;27.88;20.95;;;;;;;10.14;80.82;99277.44;4947043;28;20047;-52
2024/04/01 06:22:10;;;;;;;34.95;22.58;;;;;;;10.16;81.02;99272.75;4944599;28;20725;-55
2024/04/01 06:24:36;;;;;;;28.15;21.23;;;;;;;10.22;80.86;99268.56;4947166;28;20571;-55
2024/04/01 06:27:03;;;;;;;38.30;23.55;;;;;;;10.24;80.70;99277.22;4937337;28;20414;-55
2024/04/01 06:29:28;;;;;;;33.88;22.40;;;;;;;10.33;80.75;99273.56;4922911;28;20047;-57
2024/04/01 06:31:54;;;;;;;31.75;22.38;;;;;;;10.29;81.02;99264.22;4953860;28;20051;-53
2024/04/01 06:34:20;;;;;;;30.98;21.00;;;;;;;10.28;81.03;99267.91;4955955;28;20131;-55
2024/04/01 06:36:48;;;;;;;33.03;23.23;;;;;;;10.34;81.11;99262.75;4941324;28;20051;-54
2024/04/01 06:39:16;;;;;;;31.25;22.30;;;;;;;10.27;81.33;99258.28;4958243;28;20560;-54
2024/04/01 06:41:42;;;;;;;29.90;21.55;;;;;;;10.35;81.50;99259.06;4939491;28;20051;-53
2024/04/01 14:43:29;;;;;;;8.85;4.63;;;;;;;8.70;100.00;99586.06;5082598;27;20404;-53
2024/04/01 14:45:57;;;;;;;16.20;9.35;;;;;;;8.74;100.00;99587.41;5062331;28;20055;-52
2024/04/01 14:48:23;;;;;;;11.80;3.97;;;;;;;9.48;98.70;99589.59;5058654;28;20235;-45
2024/04/01 14:50:49;;;;;;;12.02;3.50;;;;;;;9.46;98.54;99599.59;5063896;28;20057;-52
2024/04/01 14:53:16;;;;;;;7.70;2.67;;;;;;;9.66;96.22;99602.84;5059637;28;20048;-52
2024/04/01 14:55:42;;;;;;;6.18;2.85;;;;;;;9.73;94.41;99605.72;5059964;28;20048;-47
2024/04/01 14:58:10;;;;;;;7.40;2.63;;;;;;;9.99;92.74;99607.31;5063342;28;20052;-50
2024/04/01 15:00:35;;;;;;;7.65;2.50;;;;;;;9.91;93.25;99611.78;5058554;28;20052;-50
2024/04/01 15:03:05;;;;;;;7.93;1.95;;;;;;;10.67;90.23;99619.66;5066489;28;20056;-50
2024/04/01 15:05:32;;;;;;;2.75;1.40;;;;;;;9.48;90.62;99621.53;5058880;28;20050;-53
2024/04/01 15:07:59;;;;;;;4.95;1.38;;;;;;;9.66;92.99;99620.63;5059846;27;20051;-53
2024/04/01 15:10:27;;;;;;;9.57;2.08;;;;;;;9.46;93.26;99612.91;5055790;28;20045;-49
2024/04/01 15:13:03;;;;;;;7.40;1.65;;;;;;;9.03;93.46;99611.06;5059545;28;20041;-50
2024/04/01 15:15:30;;;;;;;11.63;3.17;;;;;;;9.37;94.38;99608.47;5055735;28;20055;-54
2024/04/01 15:17:56;;;;;;;6.53;1.80;;;;;;;8.87;94.35;99604.78;5059304;28;20055;-53
2024/04/01 15:20:24;;;;;;;7.03;2.13;;;;;;;9.15;94.41;99611.63;5060065;28;20049;-49
2024/04/01 15:22:50;;;;;;;9.02;2.20;;;;;;;9.21;93.71;99603.88;5061599;28;20044;-53
2024/04/01 15:25:16;;;;;;;6.07;2.10;;;;;;;9.60;92.02;99608.81;5060664;28;20075;-52
2024/04/01 15:27:42;;;;;;;8.30;1.90;;;;;;;9.39;92.25;99601.22;5080265;27;20786;-52
2024/04/01 15:30:09;;;;;;;10.95;2.10;;;;;;;9.62;91.67;99612.13;5083888;27;20071;-51
2024/04/01 15:32:34;;;;;;;5.05;2.13;;;;;;;9.54;93.67;99609.41;5074175;27;20052;-51
2024/04/01 15:35:01;;;;;;;7.30;2.03;;;;;;;9.21;93.88;99608.34;5073682;28;20067;-53
2024/04/01 15:37:26;;;;;;;7.10;1.92;;;;;;;9.65;93.10;99617.16;5059607;28;20059;-51
2024/04/01 15:39:53;;;;;;;9.73;3.42;;;;;;;9.68;91.92;99611.50;5078989;28;20044;-50
2024/04/01 15:42:19;;;;;;;6.90;2.08;;;;;;;9.88;92.76;99620.06;5050008;28;20094;-49
2024/04/01 15:44:45;;;;;;;9.85;2.38;;;;;;;10.06;90.45;99610.16;5056400;28;20408;-51
2024/04/01 15:47:11;;;;;;;10.65;2.70;;;;;;;9.34;93.51;99622.06;5060631;28;20049;-54
2024/04/01 15:49:39;;;;;;;12.35;2.22;;;;;;;9.67;91.87;99630.28;5056376;27;20539;-53
2024/04/01 15:52:06;;;;;;;6.07;2.22;;;;;;;9.61;92.22;99629.91;5039059;28;20492;-56
2024/04/01 15:54:33;;;;;;;7.95;2.58;;;;;;;9.63;92.74;99630.59;5059259;28;20059;-52
2024/04/01 15:56:58;;;;;;;10.50;2.10;;;;;;;9.87;91.01;99637.03;5065018;28;20295;-52
2024/04/01 15:59:27;;;;;;;6.53;1.90;;;;;;;9.74;88.78;99632.13;5048279;28;20508;-54
2024/04/01 16:01:55;;;;;;;6.60;1.67;;;;;;;10.12;88.55;99628.16;5063981;28;20516;-54
2024/04/01 16:04:21;;;;;;;6.90;1.50;;;;;;;9.81;86.57;99629.66;5036873;28;20060;-53
2024/04/01 16:06:50;;;;;;;6.35;1.88;;;;;;;9.66;86.91;99633.94;5042098;28;20407;-49
2024/04/01 16:09:16;;;;;;;6.72;1.63;;;;;;;9.92;85.12;99645.38;5059046;28;20106;-51
2024/04/01 16:11:43;;;;;;;7.05;2.67;;;;;;;9.41;86.07;99631.13;5060042;28;20048;-53
2024/04/01 16:14:16;;;;;;;8.43;1.50;;;;;;;9.66;85.80;99639.25;5069403;28;20048;-51
2024/04/01 16:16:43;;;;;;;7.65;1.77;;;;;;;9.32;87.31;99647.16;5051081;28;20067;-49
2024/04/01 16:19:26;;;;;;;9.15;1.98;;;;;;;9.27;86.23;99638.78;5071157;28;20043;-52
2024/04/01 16:22:08;;;;;;;6.20;1.60;;;;;;;9.44;85.88;99649.44;5063390;28;20684;-53
2024/04/01 16:24:53;;;;;;;7.78;2.10;;;;;;;9.16;86.83;99653.19;5065645;28;20513;-55
2024/04/01 16:27:25;;;;;;;6.80;1.67;;;;;;;9.19;86.61;99653.69;5066431;28;20055;-50
2024/04/01 16:29:56;;;;;;;5.25;1.83;;;;;;;9.67;87.07;99648.91;5046290;28;20048;-53
2024/04/01 16:32:22;;;;;;;7.65;1.50;;;;;;;9.45;87.08;99652.94;5040341;28;20045;-52
2024/04/01 16:34:49;;;;;;;5.72;2.05;;;;;;;9.59;85.44;99663.84;5047337;28;20841;-50
2024/04/01 16:37:14;;;;;;;8.32;1.58;;;;;;;8.98;87.95;99653.22;5045351;28;20049;-50
2024/04/01 16:39:42;;;;;;;9.00;2.05;;;;;;;9.31;87.97;99656.97;5041539;28;20175;-50
2024/04/01 16:42:10;;;;;;;5.32;1.30;;;;;;;9.44;87.19;99653.91;5051382;28;20045;-51
2024/04/01 16:44:36;;;;;;;6.32;1.50;;;;;;;8.97;88.45;99659.50;5059777;28;20049;-54
2024/04/01 16:47:02;;;;;;;7.03;1.33;;;;;;;9.11;87.53;99658.13;5061642;28;20048;-49
2024/04/01 16:49:29;;;;;;;6.35;1.90;;;;;;;9.08;87.84;99651.28;5062514;28;20049;-48
2024/04/01 16:51:56;;;;;;;6.05;2.00;;;;;;;8.74;89.52;99664.44;5064122;28;20095;-52
2024/04/01 16:54:23;;;;;;;7.85;2.13;;;;;;;9.29;87.51;99674.03;5072983;28;20055;-51
2024/04/01 16:56:50;;;;;;;13.18;1.73;;;;;;;9.20;87.13;99675.78;5063372;28;20045;-53
2024/04/01 16:59:17;;;;;;;9.70;2.03;;;;;;;8.95;89.11;99674.78;5063060;28;20733;-53
2024/04/01 17:01:43;;;;;;;9.02;1.70;;;;;;;9.20;87.78;99671.31;5062349;28;20890;-51
2024/04/01 17:04:09;;;;;;;14.63;2.63;;;;;;;9.31;88.52;99672.91;5062610;28;20040;-52
2024/04/01 17:06:36;;;;;;;6.47;1.70;;;;;;;9.22;88.75;99687.97;5041777;28;20075;-50
2024/04/01 17:09:07;;;;;;;7.20;1.75;;;;;;;9.03;88.89;99679.31;5062849;28;20510;-51
2024/04/01 17:11:34;;;;;;;7.28;2.78;;;;;;;9.02;89.88;99690.94;5057799;28;20518;-53
2024/04/01 17:14:01;;;;;;;6.53;2.10;;;;;;;8.95;90.50;99684.56;5062655;28;20046;-51
2024/04/01 17:16:28;;;;;;;7.38;2.08;;;;;;;9.05;90.45;99685.34;5060823;28;20487;-54
2024/04/01 17:18:56;;;;;;;11.15;2.45;;;;;;;9.31;88.26;99678.22;5063736;28;20049;-50
2024/04/01 17:21:25;;;;;;;11.90;2.63;;;;;;;9.10;89.37;99691.00;5055544;28;20067;-53
2024/04/01 17:23:53;;;;;;;13.25;2.92;;;;;;;8.80;91.08;99693.06;5061776;28;20044;-48
2024/04/01 17:26:21;;;;;;;10.13;2.92;;;;;;;9.08;90.65;99703.63;5057301;28;20045;-53
2024/04/01 17:28:51;;;;;;;6.65;2.53;;;;;;;9.02;89.28;99699.75;5078583;28;20041;-53
2024/04/01 17:31:18;;;;;;;10.43;2.72;;;;;;;9.37;88.71;99698.88;5060025;28;20051;-55
2024/04/01 17:33:45;;;;;;;10.73;2.70;;;;;;;9.33;88.72;99708.13;5076199;28;20051;-50
2024/04/01 17:36:13;;;;;;;6.97;2.58;;;;;;;9.19;88.77;99709.53;5059868;28;20047;-52
2024/04/01 17:38:39;;;;;;;8.30;2.58;;;;;;;9.35;88.99;99710.66;5040186;28;20101;-53
2024/04/01 17:41:05;;;;;;;10.85;2.35;;;;;;;9.24;88.83;99717.06;5061542;28;20049;-54
2024/04/01 17:43:31;;;;;;;9.98;3.33;;;;;;;9.06;89.86;99718.88;5054731;28;20048;-53
2024/04/01 17:45:57;;;;;;;9.18;2.33;;;;;;;8.78;92.04;99713.63;5057583;28;20045;-51
2024/04/01 17:48:24;;;;;;;13.57;3.28;;;;;;;9.06;90.84;99721.53;5061210;28;20053;-50
2024/04/01 17:50:50;;;;;;;12.15;3.05;;;;;;;9.11;90.71;99721.94;5062881;28;20051;-48
2024/04/01 17:53:18;;;;;;;8.68;2.78;;;;;;;9.06;89.07;99718.88;5063103;28;20056;-55
2024/04/01 17:55:44;;;;;;;8.10;2.53;;;;;;;8.91;90.11;99723.06;5043850;28;21674;-54
2024/04/01 17:58:18;;;;;;;15.68;3.22;;;;;;;8.62;92.89;99718.78;5065693;28;20049;-51
2024/04/01 18:00:46;;;;;;;9.27;2.55;;;;;;;8.97;90.87;99723.28;5065697;28;20696;-51
2024/04/01 18:03:12;;;;;;;8.60;2.50;;;;;;;8.83;91.12;99718.50;5058494;28;20044;-53
2024/04/01 18:05:41;;;;;;;9.85;2.60;;;;;;;8.88;90.74;99733.97;5060224;28;20059;-52
2024/04/01 18:08:08;;;;;;;7.32;2.92;;;;;;;8.60;92.37;99727.88;5059021;28;20048;-54
2024/04/01 18:10:34;;;;;;;15.15;2.85;;;;;;;8.58;92.34;99737.81;5060657;28;20052;-51
2024/04/01 18:13:02;;;;;;;7.25;2.72;;;;;;;8.43;93.32;99738.31;5059341;28;20054;-52
2024/04/01 18:15:29;;;;;;;15.88;3.05;;;;;;;8.59;92.94;99739.47;5057130;28;20046;-53
2024/04/01 18:17:56;;;;;;;10.73;2.58;;;;;;;8.67;91.68;99740.41;5058270;28;20049;-52
2024/04/01 18:20:23;;;;;;;10.30;3.72;;;;;;;8.74;91.79;99754.75;5054965;28;20539;-55
2024/04/01 18:22:51;;;;;;;8.13;3.00;;;;;;;8.48;92.34;99745.84;5064911;28;20384;-54
2024/04/01 18:25:18;;;;;;;10.93;4.53;;;;;;;8.40;92.71;99754.53;5056909;28;20285;-49
2024/04/01 18:27:45;;;;;;;13.90;3.80;;;;;;;8.67;92.36;99763.47;5054447;28;21433;-58
2024/04/01 18:30:11;;;;;;;13.05;4.13;;;;;;;8.72;91.07;99762.03;5029644;28;20415;-54
2024/04/01 18:32:40;;;;;;;12.57;3.53;;;;;;;8.76;91.24;99770.56;5039303;28;20063;-53
2024/04/01 18:35:08;;;;;;;12.20;5.05;;;;;;;8.55;91.92;99765.50;5042307;28;20463;-53
2024/04/01 18:37:36;;;;;;;14.68;3.50;;;;;;;8.66;91.99;99781.22;5038673;28;20053;-53
2024/04/01 18:40:05;;;;;;;16.13;3.45;;;;;;;8.51;92.33;99781.88;5042293;28;20057;-51
2024/04/01 18:42:38;;;;;;;11.52;3.97;;;;;;;8.43;91.93;99778.16;5054966;28;20106;-48
2024/04/01 18:45:05;;;;;;;11.50;3.75;;;;;;;8.49;92.40;99787.34;5042779;28;20518;-51
2024/04/01 18:47:33;;;;;;;9.70;3.25;;;;;;;8.48;92.56;99787.47;5060282;28;20050;-53
2024/04/01 18:49:58;;;;;;;12.63;3.08;;;;;;;8.41;92.46;99787.22;5062322;28;20051;-50
2024/04/01 18:52:27;;;;;;;6.88;3.45;;;;;;;8.35;91.94;99790.47;5054048;28;20053;-52
2024/04/01 18:54:54;;;;;;;10.00;3.78;;;;;;;8.20;93.24;99797.22;5056401;28;20601;-51
2024/04/01 18:57:21;;;;;;;13.65;3.75;;;;;;;8.23;93.21;99791.66;5041596;28;20416;-53
2024/04/01 18:59:47;;;;;;;12.45;4.15;;;;;;;8.00;93.52;99796.41;5056661;28;20052;-49
2024/04/01 19:02:12;;;;;;;11.10;3.70;;;;;;;7.92;93.93;99805.09;5056499;28;20057;-53
2024/04/01 19:04:41;;;;;;;9.55;3.15;;;;;;;7.85;95.00;99811.94;5042747;28;20510;-47
2024/04/01 19:07:07;;;;;;;8.68;4.47;;;;;;;7.96;94.29;99810.97;5040797;28;20541;-49
2024/04/01 19:09:33;;;;;;;12.98;4.53;;;;;;;7.93;94.32;99808.59;5044021;28;20379;-52
2024/04/01 19:11:59;;;;;;;11.05;3.75;;;;;;;7.85;94.38;99824.38;5045580;28;20049;-50
2024/04/01 19:14:25;;;;;;;9.18;5.70;;;;;;;7.80;94.54;99822.16;5043490;28;20397;-51
2024/04/01 19:16:50;;;;;;;9.32;4.47;;;;;;;7.73;94.82;99821.03;5045124;28;20055;-53
2024/04/01 19:19:17;;;;;;;10.88;4.80;;;;;;;7.77;95.04;99825.06;5042233;28;20064;-52
2024/04/01 19:21:42;;;;;;;8.63;4.05;;;;;;;7.70;94.74;99823.97;5026572;28;21990;-52
2024/04/01 19:24:08;;;;;;;9.43;4.45;;;;;;;7.59;95.04;99818.81;5057899;28;20048;-49